sensor_id;sensor_type;location;lat;lon;timestamp;temperature;humidity
30520;DHT22;17300;50.374;8.006;2023-03-29T00:01:36;11.20;43.70
30520;DHT22;17300;50.374;8.006;2023-03-29T00:04:06;11.20;43.60
30520;DHT22;17300;50.374;8.006;2023-03-29T00:06:34;11.10;43.60
30520;DHT22;17300;50.374;8.006;2023-03-29T00:09:01;11.20;43.70
30520;DHT22;17300;50.374;8.006;2023-03-29T00:11:31;11.20;43.80
30520;DHT22;17300;50.374;8.006;2023-03-29T00:13:57;11.10;43.90
30520;DHT22;17300;50.374;8.006;2023-03-29T00:16:24;11.20;44.00
30520;DHT22;17300;50.374;8.006;2023-03-29T00:18:51;11.10;43.90
30520;DHT22;17300;50.374;8.006;2023-03-29T00:21:18;11.10;43.90
30520;DHT22;17300;50.374;8.006;2023-03-29T00:23:45;11.10;44.00
30520;DHT22;17300;50.374;8.006;2023-03-29T00:26:11;11.10;44.00
30520;DHT22;17300;50.374;8.006;2023-03-29T00:28:39;11.10;44.00
30520;DHT22;17300;50.374;8.006;2023-03-29T00:31:08;11.10;44.30
30520;DHT22;17300;50.374;8.006;2023-03-29T00:33:35;11.10;44.40
30520;DHT22;17300;50.374;8.006;2023-03-29T00:36:02;11.10;44.40
30520;DHT22;17300;50.374;8.006;2023-03-29T00:38:30;11.10;44.50
30520;DHT22;17300;50.374;8.006;2023-03-29T00:40:57;11.10;44.40
30520;DHT22;17300;50.374;8.006;2023-03-29T00:43:24;11.10;44.40
30520;DHT22;17300;50.374;8.006;2023-03-29T00:45:52;11.10;44.50
30520;DHT22;17300;50.374;8.006;2023-03-29T00:48:21;11.10;44.60
30520;DHT22;17300;50.374;8.006;2023-03-29T00:50:52;11.10;44.70
30520;DHT22;17300;50.374;8.006;2023-03-29T00:53:22;11.10;44.80
30520;DHT22;17300;50.374;8.006;2023-03-29T00:55:54;11.00;44.70
30520;DHT22;17300;50.374;8.006;2023-03-29T00:58:25;11.00;44.70
30520;DHT22;17300;50.374;8.006;2023-03-29T01:00:59;11.00;44.80
30520;DHT22;17300;50.374;8.006;2023-03-29T01:03:29;11.00;44.90
30520;DHT22;17300;50.374;8.006;2023-03-29T01:06:00;10.90;44.60
30520;DHT22;17300;50.374;8.006;2023-03-29T01:08:31;11.00;44.90
30520;DHT22;17300;50.374;8.006;2023-03-29T01:11:02;10.90;44.80
30520;DHT22;17300;50.374;8.006;2023-03-29T01:13:35;10.90;44.90
30520;DHT22;17300;50.374;8.006;2023-03-29T01:16:06;10.80;45.00
30520;DHT22;17300;50.374;8.006;2023-03-29T01:18:34;10.80;45.00
30520;DHT22;17300;50.374;8.006;2023-03-29T01:21:13;10.80;44.90
30520;DHT22;17300;50.374;8.006;2023-03-29T01:26:46;10.80;45.90
30520;DHT22;17300;50.374;8.006;2023-03-29T01:29:20;10.70;45.10
30520;DHT22;17300;50.374;8.006;2023-03-29T01:31:53;10.70;45.40
30520;DHT22;17300;50.374;8.006;2023-03-29T01:34:23;10.70;45.20
30520;DHT22;17300;50.374;8.006;2023-03-29T01:36:56;10.70;45.30
30520;DHT22;17300;50.374;8.006;2023-03-29T01:39:25;10.70;45.50
30520;DHT22;17300;50.374;8.006;2023-03-29T01:42:00;10.60;45.20
30520;DHT22;17300;50.374;8.006;2023-03-29T01:44:34;10.60;45.70
30520;DHT22;17300;50.374;8.006;2023-03-29T01:47:09;10.60;45.70
30520;DHT22;17300;50.374;8.006;2023-03-29T01:49:41;10.60;45.80
30520;DHT22;17300;50.374;8.006;2023-03-29T01:52:14;10.60;45.60
30520;DHT22;17300;50.374;8.006;2023-03-29T01:54:46;10.60;45.70
30520;DHT22;17300;50.374;8.006;2023-03-29T01:57:14;10.60;45.80
30520;DHT22;17300;50.374;8.006;2023-03-29T01:59:44;10.50;45.60
30520;DHT22;17300;50.374;8.006;2023-03-29T02:02:14;10.50;45.80
30520;DHT22;17300;50.374;8.006;2023-03-29T02:04:44;10.50;45.90
30520;DHT22;17300;50.374;8.006;2023-03-29T02:07:14;10.50;45.90
30520;DHT22;17300;50.374;8.006;2023-03-29T02:09:42;10.50;45.80
30520;DHT22;17300;50.374;8.006;2023-03-29T02:12:11;10.40;45.70
30520;DHT22;17300;50.374;8.006;2023-03-29T02:14:38;10.40;45.70
30520;DHT22;17300;50.374;8.006;2023-03-29T02:17:15;10.40;46.20
30520;DHT22;17300;50.374;8.006;2023-03-29T02:19:43;10.30;46.00
30520;DHT22;17300;50.374;8.006;2023-03-29T02:22:15;10.30;45.40
30520;DHT22;17300;50.374;8.006;2023-03-29T02:24:44;10.20;45.40
30520;DHT22;17300;50.374;8.006;2023-03-29T02:27:13;10.10;45.40
30520;DHT22;17300;50.374;8.006;2023-03-29T02:29:40;10.10;45.50
30520;DHT22;17300;50.374;8.006;2023-03-29T02:32:11;10.00;45.50
30520;DHT22;17300;50.374;8.006;2023-03-29T02:34:47;9.90;46.60
30520;DHT22;17300;50.374;8.006;2023-03-29T02:37:16;9.80;46.70
30520;DHT22;17300;50.374;8.006;2023-03-29T02:39:46;9.70;46.50
30520;DHT22;17300;50.374;8.006;2023-03-29T02:42:14;9.70;46.60
30520;DHT22;17300;50.374;8.006;2023-03-29T02:44:43;9.60;46.80
30520;DHT22;17300;50.374;8.006;2023-03-29T02:47:14;9.60;47.10
30520;DHT22;17300;50.374;8.006;2023-03-29T02:49:42;9.50;47.30
30520;DHT22;17300;50.374;8.006;2023-03-29T02:52:11;9.50;47.40
30520;DHT22;17300;50.374;8.006;2023-03-29T02:54:39;9.50;47.60
30520;DHT22;17300;50.374;8.006;2023-03-29T02:57:08;9.50;47.60
30520;DHT22;17300;50.374;8.006;2023-03-29T02:59:36;9.50;47.70
30520;DHT22;17300;50.374;8.006;2023-03-29T03:02:05;9.50;47.90
30520;DHT22;17300;50.374;8.006;2023-03-29T03:04:32;9.60;47.90
30520;DHT22;17300;50.374;8.006;2023-03-29T03:07:01;9.60;48.00
30520;DHT22;17300;50.374;8.006;2023-03-29T03:09:29;9.60;48.00
30520;DHT22;17300;50.374;8.006;2023-03-29T03:11:55;9.70;48.00
30520;DHT22;17300;50.374;8.006;2023-03-29T03:14:22;9.70;47.90
30520;DHT22;17300;50.374;8.006;2023-03-29T03:16:49;9.70;48.00
30520;DHT22;17300;50.374;8.006;2023-03-29T03:19:17;9.70;48.00
30520;DHT22;17300;50.374;8.006;2023-03-29T03:21:44;9.80;48.10
30520;DHT22;17300;50.374;8.006;2023-03-29T03:24:12;9.80;48.10
30520;DHT22;17300;50.374;8.006;2023-03-29T03:26:39;9.80;48.10
30520;DHT22;17300;50.374;8.006;2023-03-29T03:29:06;9.80;48.10
30520;DHT22;17300;50.374;8.006;2023-03-29T03:31:33;9.90;48.20
30520;DHT22;17300;50.374;8.006;2023-03-29T03:33:59;10.00;47.40
30520;DHT22;17300;50.374;8.006;2023-03-29T03:36:26;9.90;48.30
30520;DHT22;17300;50.374;8.006;2023-03-29T03:38:53;9.90;48.80
30520;DHT22;17300;50.374;8.006;2023-03-29T03:41:22;10.00;47.40
30520;DHT22;17300;50.374;8.006;2023-03-29T03:43:50;10.00;47.50
30520;DHT22;17300;50.374;8.006;2023-03-29T03:46:17;10.00;47.30
30520;DHT22;17300;50.374;8.006;2023-03-29T03:48:44;10.00;47.30
30520;DHT22;17300;50.374;8.006;2023-03-29T03:51:11;10.00;47.40
30520;DHT22;17300;50.374;8.006;2023-03-29T03:53:39;10.10;47.40
30520;DHT22;17300;50.374;8.006;2023-03-29T03:56:06;10.10;47.40
30520;DHT22;17300;50.374;8.006;2023-03-29T03:58:35;10.10;47.40
30520;DHT22;17300;50.374;8.006;2023-03-29T04:01:02;10.10;47.50
30520;DHT22;17300;50.374;8.006;2023-03-29T04:03:30;10.10;47.50
30520;DHT22;17300;50.374;8.006;2023-03-29T04:05:58;10.10;47.50
30520;DHT22;17300;50.374;8.006;2023-03-29T04:08:25;10.10;47.70
30520;DHT22;17300;50.374;8.006;2023-03-29T04:10:54;10.20;47.70
30520;DHT22;17300;50.374;8.006;2023-03-29T04:13:22;10.20;47.80
30520;DHT22;17300;50.374;8.006;2023-03-29T04:15:50;10.20;47.70
30520;DHT22;17300;50.374;8.006;2023-03-29T04:18:18;10.20;47.80
30520;DHT22;17300;50.374;8.006;2023-03-29T04:20:46;10.20;47.70
30520;DHT22;17300;50.374;8.006;2023-03-29T04:23:13;10.20;47.70
30520;DHT22;17300;50.374;8.006;2023-03-29T04:25:40;10.30;47.80
30520;DHT22;17300;50.374;8.006;2023-03-29T04:28:08;10.30;47.80
30520;DHT22;17300;50.374;8.006;2023-03-29T04:30:36;10.30;47.80
30520;DHT22;17300;50.374;8.006;2023-03-29T04:33:04;10.30;47.90
30520;DHT22;17300;50.374;8.006;2023-03-29T04:35:31;10.30;47.90
30520;DHT22;17300;50.374;8.006;2023-03-29T04:37:57;10.40;48.00
30520;DHT22;17300;50.374;8.006;2023-03-29T04:47:37;10.40;48.60
30520;DHT22;17300;50.374;8.006;2023-03-29T04:50:27;10.40;48.50
30520;DHT22;17300;50.374;8.006;2023-03-29T04:56:26;10.40;48.50
30520;DHT22;17300;50.374;8.006;2023-03-29T04:59:06;10.40;47.70
30520;DHT22;17300;50.374;8.006;2023-03-29T05:01:34;10.40;47.80
30520;DHT22;17300;50.374;8.006;2023-03-29T05:04:00;10.50;48.00
30520;DHT22;17300;50.374;8.006;2023-03-29T05:06:29;10.50;48.10
30520;DHT22;17300;50.374;8.006;2023-03-29T05:08:56;10.40;48.10
30520;DHT22;17300;50.374;8.006;2023-03-29T05:11:22;10.50;48.20
30520;DHT22;17300;50.374;8.006;2023-03-29T05:13:50;10.50;48.30
30520;DHT22;17300;50.374;8.006;2023-03-29T05:16:19;10.50;48.50
30520;DHT22;17300;50.374;8.006;2023-03-29T05:18:46;10.50;48.50
30520;DHT22;17300;50.374;8.006;2023-03-29T05:21:13;10.50;48.50
30520;DHT22;17300;50.374;8.006;2023-03-29T05:23:41;10.50;48.60
30520;DHT22;17300;50.374;8.006;2023-03-29T05:26:09;10.50;48.60
30520;DHT22;17300;50.374;8.006;2023-03-29T05:28:38;10.50;48.60
30520;DHT22;17300;50.374;8.006;2023-03-29T05:31:06;10.50;48.60
30520;DHT22;17300;50.374;8.006;2023-03-29T05:33:33;10.60;48.70
30520;DHT22;17300;50.374;8.006;2023-03-29T05:36:01;10.60;48.70
30520;DHT22;17300;50.374;8.006;2023-03-29T05:38:28;10.60;48.70
30520;DHT22;17300;50.374;8.006;2023-03-29T05:40:58;10.70;48.80
30520;DHT22;17300;50.374;8.006;2023-03-29T05:43:25;10.70;48.80
30520;DHT22;17300;50.374;8.006;2023-03-29T05:45:52;10.70;48.80
30520;DHT22;17300;50.374;8.006;2023-03-29T05:48:19;10.80;48.80
30520;DHT22;17300;50.374;8.006;2023-03-29T05:50:46;10.80;48.80
30520;DHT22;17300;50.374;8.006;2023-03-29T05:53:14;10.80;48.80
30520;DHT22;17300;50.374;8.006;2023-03-29T05:55:40;10.80;48.80
30520;DHT22;17300;50.374;8.006;2023-03-29T05:58:09;10.80;48.80
30520;DHT22;17300;50.374;8.006;2023-03-29T06:00:36;10.80;48.80
30520;DHT22;17300;50.374;8.006;2023-03-29T06:03:04;10.90;48.90
30520;DHT22;17300;50.374;8.006;2023-03-29T06:05:32;10.90;48.90
30520;DHT22;17300;50.374;8.006;2023-03-29T06:07:59;11.00;49.00
30520;DHT22;17300;50.374;8.006;2023-03-29T06:10:26;11.00;49.00
30520;DHT22;17300;50.374;8.006;2023-03-29T06:12:53;11.10;49.00
30520;DHT22;17300;50.374;8.006;2023-03-29T06:15:21;11.10;48.90
30520;DHT22;17300;50.374;8.006;2023-03-29T06:17:48;11.10;48.90
30520;DHT22;17300;50.374;8.006;2023-03-29T06:20:15;11.20;48.80
30520;DHT22;17300;50.374;8.006;2023-03-29T06:22:43;11.20;48.80
30520;DHT22;17300;50.374;8.006;2023-03-29T06:25:11;11.20;48.80
30520;DHT22;17300;50.374;8.006;2023-03-29T06:27:38;11.30;48.80
30520;DHT22;17300;50.374;8.006;2023-03-29T06:30:06;11.30;48.80
30520;DHT22;17300;50.374;8.006;2023-03-29T06:32:34;11.40;48.80
30520;DHT22;17300;50.374;8.006;2023-03-29T06:35:01;11.40;48.80
30520;DHT22;17300;50.374;8.006;2023-03-29T06:37:29;11.40;48.80
30520;DHT22;17300;50.374;8.006;2023-03-29T06:39:56;11.40;48.80
30520;DHT22;17300;50.374;8.006;2023-03-29T06:42:24;11.50;49.20
30520;DHT22;17300;50.374;8.006;2023-03-29T06:44:50;11.50;48.90
30520;DHT22;17300;50.374;8.006;2023-03-29T06:47:18;11.50;48.80
30520;DHT22;17300;50.374;8.006;2023-03-29T06:49:46;11.50;48.80
30520;DHT22;17300;50.374;8.006;2023-03-29T06:52:13;11.50;48.90
30520;DHT22;17300;50.374;8.006;2023-03-29T06:54:40;11.50;48.80
30520;DHT22;17300;50.374;8.006;2023-03-29T06:57:06;11.60;49.00
30520;DHT22;17300;50.374;8.006;2023-03-29T06:59:34;11.60;49.00
30520;DHT22;17300;50.374;8.006;2023-03-29T07:02:01;11.60;49.00
30520;DHT22;17300;50.374;8.006;2023-03-29T07:04:28;11.60;49.00
30520;DHT22;17300;50.374;8.006;2023-03-29T07:06:57;11.70;49.20
30520;DHT22;17300;50.374;8.006;2023-03-29T07:09:27;11.70;49.20
30520;DHT22;17300;50.374;8.006;2023-03-29T07:11:55;11.70;49.00
30520;DHT22;17300;50.374;8.006;2023-03-29T07:14:22;11.80;49.10
30520;DHT22;17300;50.374;8.006;2023-03-29T07:16:53;11.80;49.10
30520;DHT22;17300;50.374;8.006;2023-03-29T07:19:20;11.80;49.10
30520;DHT22;17300;50.374;8.006;2023-03-29T07:21:49;11.80;49.10
30520;DHT22;17300;50.374;8.006;2023-03-29T07:24:17;11.90;49.10
30520;DHT22;17300;50.374;8.006;2023-03-29T07:26:44;11.90;49.10
30520;DHT22;17300;50.374;8.006;2023-03-29T07:29:11;11.90;49.10
30520;DHT22;17300;50.374;8.006;2023-03-29T07:31:38;11.90;49.10
30520;DHT22;17300;50.374;8.006;2023-03-29T07:34:05;12.00;49.20
30520;DHT22;17300;50.374;8.006;2023-03-29T07:36:35;12.00;49.20
30520;DHT22;17300;50.374;8.006;2023-03-29T07:39:03;12.00;49.20
30520;DHT22;17300;50.374;8.006;2023-03-29T07:41:32;12.10;49.40
30520;DHT22;17300;50.374;8.006;2023-03-29T07:43:58;12.10;49.40
30520;DHT22;17300;50.374;8.006;2023-03-29T07:46:29;12.10;49.20
30520;DHT22;17300;50.374;8.006;2023-03-29T07:48:56;12.20;50.00
30520;DHT22;17300;50.374;8.006;2023-03-29T07:51:23;12.20;49.40
30520;DHT22;17300;50.374;8.006;2023-03-29T07:53:49;12.30;49.60
30520;DHT22;17300;50.374;8.006;2023-03-29T07:56:16;12.30;49.60
30520;DHT22;17300;50.374;8.006;2023-03-29T07:58:44;12.40;49.70
30520;DHT22;17300;50.374;8.006;2023-03-29T08:01:11;12.40;49.70
30520;DHT22;17300;50.374;8.006;2023-03-29T08:03:39;12.50;49.70
30520;DHT22;17300;50.374;8.006;2023-03-29T08:06:06;12.60;49.70
30520;DHT22;17300;50.374;8.006;2023-03-29T08:08:33;12.60;49.60
30520;DHT22;17300;50.374;8.006;2023-03-29T08:11:00;12.70;49.80
30520;DHT22;17300;50.374;8.006;2023-03-29T08:13:26;12.80;49.90
30520;DHT22;17300;50.374;8.006;2023-03-29T08:15:54;12.90;49.90
30520;DHT22;17300;50.374;8.006;2023-03-29T08:18:21;13.00;50.00
30520;DHT22;17300;50.374;8.006;2023-03-29T08:20:49;13.10;49.80
30520;DHT22;17300;50.374;8.006;2023-03-29T08:23:16;13.20;49.90
30520;DHT22;17300;50.374;8.006;2023-03-29T08:25:44;13.40;50.00
30520;DHT22;17300;50.374;8.006;2023-03-29T08:28:11;13.50;50.20
30520;DHT22;17300;50.374;8.006;2023-03-29T08:30:38;13.60;50.50
30520;DHT22;17300;50.374;8.006;2023-03-29T08:33:06;13.80;50.80
30520;DHT22;17300;50.374;8.006;2023-03-29T08:35:33;14.00;50.90
30520;DHT22;17300;50.374;8.006;2023-03-29T08:38:00;14.20;50.80
30520;DHT22;17300;50.374;8.006;2023-03-29T08:40:27;14.50;50.70
30520;DHT22;17300;50.374;8.006;2023-03-29T08:43:13;14.70;50.40
30520;DHT22;17300;50.374;8.006;2023-03-29T08:45:49;14.80;50.10
30520;DHT22;17300;50.374;8.006;2023-03-29T08:48:24;15.00;49.80
30520;DHT22;17300;50.374;8.006;2023-03-29T08:50:54;15.20;49.40
30520;DHT22;17300;50.374;8.006;2023-03-29T08:53:28;15.20;49.80
30520;DHT22;17300;50.374;8.006;2023-03-29T08:55:58;15.30;49.10
30520;DHT22;17300;50.374;8.006;2023-03-29T08:58:28;15.40;49.10
30520;DHT22;17300;50.374;8.006;2023-03-29T09:00:58;15.50;49.00
30520;DHT22;17300;50.374;8.006;2023-03-29T09:03:30;15.60;48.80
30520;DHT22;17300;50.374;8.006;2023-03-29T09:06:02;15.60;48.60
30520;DHT22;17300;50.374;8.006;2023-03-29T09:08:29;15.60;48.40
30520;DHT22;17300;50.374;8.006;2023-03-29T09:11:09;15.70;48.30
30520;DHT22;17300;50.374;8.006;2023-03-29T09:13:44;15.70;48.10
30520;DHT22;17300;50.374;8.006;2023-03-29T09:16:16;15.70;48.10
30520;DHT22;17300;50.374;8.006;2023-03-29T09:18:55;15.80;48.20
30520;DHT22;17300;50.374;8.006;2023-03-29T09:21:29;15.80;48.30
30520;DHT22;17300;50.374;8.006;2023-03-29T09:24:09;15.90;48.30
30520;DHT22;17300;50.374;8.006;2023-03-29T09:26:44;16.00;48.60
30520;DHT22;17300;50.374;8.006;2023-03-29T09:29:24;16.10;48.80
30520;DHT22;17300;50.374;8.006;2023-03-29T09:31:51;16.20;48.90
30520;DHT22;17300;50.374;8.006;2023-03-29T09:34:22;16.40;49.20
30520;DHT22;17300;50.374;8.006;2023-03-29T09:36:51;16.60;49.10
30520;DHT22;17300;50.374;8.006;2023-03-29T09:39:19;16.70;48.70
30520;DHT22;17300;50.374;8.006;2023-03-29T09:41:49;16.90;48.40
30520;DHT22;17300;50.374;8.006;2023-03-29T09:44:20;17.00;47.90
30520;DHT22;17300;50.374;8.006;2023-03-29T09:46:51;17.10;47.70
30520;DHT22;17300;50.374;8.006;2023-03-29T09:49:25;17.10;47.60
30520;DHT22;17300;50.374;8.006;2023-03-29T09:51:55;17.10;47.80
30520;DHT22;17300;50.374;8.006;2023-03-29T09:54:23;17.10;47.20
30520;DHT22;17300;50.374;8.006;2023-03-29T09:56:50;17.10;47.40
30520;DHT22;17300;50.374;8.006;2023-03-29T09:59:17;17.10;46.90
30520;DHT22;17300;50.374;8.006;2023-03-29T10:01:44;17.10;46.90
30520;DHT22;17300;50.374;8.006;2023-03-29T10:04:12;17.10;46.90
30520;DHT22;17300;50.374;8.006;2023-03-29T10:06:46;17.10;46.80
30520;DHT22;17300;50.374;8.006;2023-03-29T10:09:16;17.10;46.90
30520;DHT22;17300;50.374;8.006;2023-03-29T10:11:47;17.10;46.90
30520;DHT22;17300;50.374;8.006;2023-03-29T10:14:17;17.10;46.80
30520;DHT22;17300;50.374;8.006;2023-03-29T10:16:45;17.10;46.90
30520;DHT22;17300;50.374;8.006;2023-03-29T10:19:20;17.20;47.00
30520;DHT22;17300;50.374;8.006;2023-03-29T10:21:49;17.20;46.90
30520;DHT22;17300;50.374;8.006;2023-03-29T10:24:19;17.20;47.00
30520;DHT22;17300;50.374;8.006;2023-03-29T10:26:47;17.30;47.00
30520;DHT22;17300;50.374;8.006;2023-03-29T10:29:17;17.40;47.70
30520;DHT22;17300;50.374;8.006;2023-03-29T10:31:44;17.40;47.10
30520;DHT22;17300;50.374;8.006;2023-03-29T10:34:13;17.50;47.10
30520;DHT22;17300;50.374;8.006;2023-03-29T10:36:43;17.50;46.90
30520;DHT22;17300;50.374;8.006;2023-03-29T10:39:13;17.50;46.90
30520;DHT22;17300;50.374;8.006;2023-03-29T10:41:41;17.60;47.20
30520;DHT22;17300;50.374;8.006;2023-03-29T10:44:24;17.60;47.30
30520;DHT22;17300;50.374;8.006;2023-03-29T10:46:51;17.70;47.10
30520;DHT22;17300;50.374;8.006;2023-03-29T10:49:20;17.80;47.20
30520;DHT22;17300;50.374;8.006;2023-03-29T10:51:48;17.90;47.20
30520;DHT22;17300;50.374;8.006;2023-03-29T10:54:19;17.90;47.30
30520;DHT22;17300;50.374;8.006;2023-03-29T10:56:49;17.90;47.20
30520;DHT22;17300;50.374;8.006;2023-03-29T10:59:25;18.00;47.20
30520;DHT22;17300;50.374;8.006;2023-03-29T11:04:48;18.20;47.60
30520;DHT22;17300;50.374;8.006;2023-03-29T11:07:26;18.40;48.10
30520;DHT22;17300;50.374;8.006;2023-03-29T11:10:03;18.70;48.40
30520;DHT22;17300;50.374;8.006;2023-03-29T11:12:36;19.00;48.40
30520;DHT22;17300;50.374;8.006;2023-03-29T11:15:19;19.40;49.10
30520;DHT22;17300;50.374;8.006;2023-03-29T11:17:54;19.80;48.90
30520;DHT22;17300;50.374;8.006;2023-03-29T11:20:32;20.30;49.60
30520;DHT22;17300;50.374;8.006;2023-03-29T11:23:13;20.80;50.30
30520;DHT22;17300;50.374;8.006;2023-03-29T11:25:51;21.50;49.70
30520;DHT22;17300;50.374;8.006;2023-03-29T11:28:28;22.10;48.70
30520;DHT22;17300;50.374;8.006;2023-03-29T11:30:59;22.60;48.30
30520;DHT22;17300;50.374;8.006;2023-03-29T11:33:36;23.20;47.90
30520;DHT22;17300;50.374;8.006;2023-03-29T11:36:13;23.60;46.50
30520;DHT22;17300;50.374;8.006;2023-03-29T11:38:48;23.90;45.70
30520;DHT22;17300;50.374;8.006;2023-03-29T11:41:21;24.20;44.60
30520;DHT22;17300;50.374;8.006;2023-03-29T11:43:52;24.50;44.40
30520;DHT22;17300;50.374;8.006;2023-03-29T11:46:25;24.60;44.00
30520;DHT22;17300;50.374;8.006;2023-03-29T11:48:58;24.70;43.10
30520;DHT22;17300;50.374;8.006;2023-03-29T11:51:28;24.80;42.80
30520;DHT22;17300;50.374;8.006;2023-03-29T11:54:02;24.80;42.80
30520;DHT22;17300;50.374;8.006;2023-03-29T11:56:35;24.80;42.50
30520;DHT22;17300;50.374;8.006;2023-03-29T11:59:08;24.80;41.90
30520;DHT22;17300;50.374;8.006;2023-03-29T12:01:41;24.80;41.60
30520;DHT22;17300;50.374;8.006;2023-03-29T12:04:12;24.70;41.20
30520;DHT22;17300;50.374;8.006;2023-03-29T12:06:46;24.60;40.90
30520;DHT22;17300;50.374;8.006;2023-03-29T12:09:22;24.40;40.60
30520;DHT22;17300;50.374;8.006;2023-03-29T12:11:56;24.30;40.20
30520;DHT22;17300;50.374;8.006;2023-03-29T12:14:28;24.10;41.00
30520;DHT22;17300;50.374;8.006;2023-03-29T12:16:59;24.00;41.10
30520;DHT22;17300;50.374;8.006;2023-03-29T12:19:30;23.90;41.20
30520;DHT22;17300;50.374;8.006;2023-03-29T12:21:58;23.90;41.30
30520;DHT22;17300;50.374;8.006;2023-03-29T12:24:28;23.90;41.40
30520;DHT22;17300;50.374;8.006;2023-03-29T12:27:17;23.90;41.70
30520;DHT22;17300;50.374;8.006;2023-03-29T12:32:53;24.00;41.00
30520;DHT22;17300;50.374;8.006;2023-03-29T12:35:31;24.00;40.90
30520;DHT22;17300;50.374;8.006;2023-03-29T12:38:08;24.00;40.70
30520;DHT22;17300;50.374;8.006;2023-03-29T12:40:40;24.00;40.70
30520;DHT22;17300;50.374;8.006;2023-03-29T12:43:16;24.00;40.70
30520;DHT22;17300;50.374;8.006;2023-03-29T12:45:45;24.00;40.30
30520;DHT22;17300;50.374;8.006;2023-03-29T12:48:15;23.90;40.60
30520;DHT22;17300;50.374;8.006;2023-03-29T12:50:47;23.90;40.50
30520;DHT22;17300;50.374;8.006;2023-03-29T12:53:18;23.80;40.20
30520;DHT22;17300;50.374;8.006;2023-03-29T12:55:53;23.80;40.20
30520;DHT22;17300;50.374;8.006;2023-03-29T12:58:41;23.70;40.10
30520;DHT22;17300;50.374;8.006;2023-03-29T13:01:09;23.60;39.90
30520;DHT22;17300;50.374;8.006;2023-03-29T13:03:48;23.60;40.00
30520;DHT22;17300;50.374;8.006;2023-03-29T13:06:27;23.50;40.10
30520;DHT22;17300;50.374;8.006;2023-03-29T13:09:00;23.40;40.40
30520;DHT22;17300;50.374;8.006;2023-03-29T13:11:32;23.30;40.50
30520;DHT22;17300;50.374;8.006;2023-03-29T13:14:05;23.30;40.80
30520;DHT22;17300;50.374;8.006;2023-03-29T13:16:39;23.30;40.90
30520;DHT22;17300;50.374;8.006;2023-03-29T13:19:16;23.20;40.80
30520;DHT22;17300;50.374;8.006;2023-03-29T13:21:52;23.30;40.70
30520;DHT22;17300;50.374;8.006;2023-03-29T13:24:34;23.20;40.50
30520;DHT22;17300;50.374;8.006;2023-03-29T13:27:07;23.30;40.50
30520;DHT22;17300;50.374;8.006;2023-03-29T13:29:51;23.20;40.50
30520;DHT22;17300;50.374;8.006;2023-03-29T13:32:42;23.20;40.30
30520;DHT22;17300;50.374;8.006;2023-03-29T13:35:19;23.20;40.20
30520;DHT22;17300;50.374;8.006;2023-03-29T13:37:58;23.10;40.00
30520;DHT22;17300;50.374;8.006;2023-03-29T13:40:31;23.00;40.00
30520;DHT22;17300;50.374;8.006;2023-03-29T13:43:00;22.90;40.00
30520;DHT22;17300;50.374;8.006;2023-03-29T13:45:35;22.80;40.60
30520;DHT22;17300;50.374;8.006;2023-03-29T13:48:04;22.70;40.00
30520;DHT22;17300;50.374;8.006;2023-03-29T13:50:53;22.60;40.00
30520;DHT22;17300;50.374;8.006;2023-03-29T13:53:25;22.60;40.20
30520;DHT22;17300;50.374;8.006;2023-03-29T13:55:54;22.50;40.20
30520;DHT22;17300;50.374;8.006;2023-03-29T13:58:29;22.50;40.30
30520;DHT22;17300;50.374;8.006;2023-03-29T14:01:05;22.40;40.10
30520;DHT22;17300;50.374;8.006;2023-03-29T14:03:40;22.40;40.20
30520;DHT22;17300;50.374;8.006;2023-03-29T14:06:10;22.40;40.30
30520;DHT22;17300;50.374;8.006;2023-03-29T14:08:39;22.40;40.40
30520;DHT22;17300;50.374;8.006;2023-03-29T14:11:17;22.40;40.40
30520;DHT22;17300;50.374;8.006;2023-03-29T14:13:45;22.30;40.20
30520;DHT22;17300;50.374;8.006;2023-03-29T14:16:13;22.30;40.00
30520;DHT22;17300;50.374;8.006;2023-03-29T14:18:41;22.20;40.00
30520;DHT22;17300;50.374;8.006;2023-03-29T14:21:10;22.20;40.10
30520;DHT22;17300;50.374;8.006;2023-03-29T14:23:38;22.20;40.30
30520;DHT22;17300;50.374;8.006;2023-03-29T14:26:08;22.20;40.20
30520;DHT22;17300;50.374;8.006;2023-03-29T14:28:36;22.10;40.10
30520;DHT22;17300;50.374;8.006;2023-03-29T14:31:17;22.10;40.20
30520;DHT22;17300;50.374;8.006;2023-03-29T14:33:44;22.10;40.10
30520;DHT22;17300;50.374;8.006;2023-03-29T14:36:14;22.00;40.10
30520;DHT22;17300;50.374;8.006;2023-03-29T14:38:44;22.00;40.10
30520;DHT22;17300;50.374;8.006;2023-03-29T14:41:12;22.00;40.10
30520;DHT22;17300;50.374;8.006;2023-03-29T14:43:40;21.90;39.90
30520;DHT22;17300;50.374;8.006;2023-03-29T14:46:07;21.90;39.90
30520;DHT22;17300;50.374;8.006;2023-03-29T14:48:35;21.90;40.00
30520;DHT22;17300;50.374;8.006;2023-03-29T14:51:03;21.80;39.90
30520;DHT22;17300;50.374;8.006;2023-03-29T14:53:31;21.80;40.00
30520;DHT22;17300;50.374;8.006;2023-03-29T14:55:59;21.70;40.10
30520;DHT22;17300;50.374;8.006;2023-03-29T14:58:27;21.70;40.10
30520;DHT22;17300;50.374;8.006;2023-03-29T15:00:54;21.60;40.10
30520;DHT22;17300;50.374;8.006;2023-03-29T15:03:21;21.60;40.10
30520;DHT22;17300;50.374;8.006;2023-03-29T15:05:53;21.60;40.20
30520;DHT22;17300;50.374;8.006;2023-03-29T15:08:29;21.50;40.40
30520;DHT22;17300;50.374;8.006;2023-03-29T15:10:57;21.50;40.40
30520;DHT22;17300;50.374;8.006;2023-03-29T15:13:25;21.50;40.70
30520;DHT22;17300;50.374;8.006;2023-03-29T15:15:56;21.50;40.70
30520;DHT22;17300;50.374;8.006;2023-03-29T15:18:27;21.40;40.70
30520;DHT22;17300;50.374;8.006;2023-03-29T15:20:57;21.40;40.50
30520;DHT22;17300;50.374;8.006;2023-03-29T15:23:25;21.30;40.30
30520;DHT22;17300;50.374;8.006;2023-03-29T15:25:54;21.30;40.30
30520;DHT22;17300;50.374;8.006;2023-03-29T15:28:24;21.30;40.30
30520;DHT22;17300;50.374;8.006;2023-03-29T15:30:56;21.20;40.30
30520;DHT22;17300;50.374;8.006;2023-03-29T15:33:23;21.20;40.50
30520;DHT22;17300;50.374;8.006;2023-03-29T15:35:58;21.10;40.40
30520;DHT22;17300;50.374;8.006;2023-03-29T15:38:27;21.10;40.50
30520;DHT22;17300;50.374;8.006;2023-03-29T15:40:54;21.10;40.70
30520;DHT22;17300;50.374;8.006;2023-03-29T15:43:21;21.00;40.60
30520;DHT22;17300;50.374;8.006;2023-03-29T15:45:49;21.00;40.60
30520;DHT22;17300;50.374;8.006;2023-03-29T15:48:17;21.00;40.60
30520;DHT22;17300;50.374;8.006;2023-03-29T15:50:45;21.00;40.70
30520;DHT22;17300;50.374;8.006;2023-03-29T15:53:14;21.00;40.70
30520;DHT22;17300;50.374;8.006;2023-03-29T15:55:42;20.90;40.60
30520;DHT22;17300;50.374;8.006;2023-03-29T15:58:12;20.90;40.70
30520;DHT22;17300;50.374;8.006;2023-03-29T16:00:41;20.90;40.70
30520;DHT22;17300;50.374;8.006;2023-03-29T16:03:11;20.90;40.90
30520;DHT22;17300;50.374;8.006;2023-03-29T16:05:39;20.90;41.00
30520;DHT22;17300;50.374;8.006;2023-03-29T16:08:07;20.90;41.00
30520;DHT22;17300;50.374;8.006;2023-03-29T16:10:35;20.90;41.00